Time;durP1;ratioP1;P1;durP2;ratioP2;P2;SDS_P1;SDS_P2;PMS_P1;PMS_P2;Temp;Humidity;BMP_temperature;BMP_pressure;BME280_temperature;BME280_humidity;BME280_pressure;Samples;Min_cycle;Max_cycle;Signal;HPM_P1;HPM_P2
2022/07/23 00:03:27;;;;;;;16.40;10.40;;;;;22.30;96389.00;;;;8410330;28;20317;-76
2022/07/23 00:07:30;;;;;;;13.93;10.63;;;;;22.30;96384.00;;;;8396702;28;20243;-75
2022/07/23 00:11:35;;;;;;;15.32;10.27;;;;;22.20;96389.00;;;;8405105;28;20265;-77
2022/07/23 00:15:38;;;;;;;16.48;11.65;;;;;22.10;96386.00;;;;8413516;28;20229;-76
2022/07/23 00:19:41;;;;;;;13.32;10.75;;;;;22.10;96377.00;;;;8412941;28;20266;-76
2022/07/23 00:23:44;;;;;;;11.85;10.23;;;;;22.10;96367.00;;;;8409653;28;20302;-77
2022/07/23 00:27:49;;;;;;;13.70;11.30;;;;;22.10;96356.00;;;;8406866;28;20223;-79
2022/07/23 00:31:52;;;;;;;20.13;11.68;;;;;22.20;96344.00;;;;8407588;28;20224;-76
2022/07/23 00:35:55;;;;;;;16.08;10.60;;;;;22.20;96335.00;;;;8405684;28;20227;-75
2022/07/23 00:39:58;;;;;;;17.65;11.80;;;;;22.30;96330.00;;;;8405960;28;20233;-75
2022/07/23 00:44:19;;;;;;;13.95;10.43;;;;;22.20;96325.00;;;;8410405;28;20229;-76
2022/07/23 00:48:22;;;;;;;14.27;10.98;;;;;22.20;96309.00;;;;8400984;28;20227;-76
2022/07/23 00:52:26;;;;;;;13.02;10.68;;;;;22.20;96296.00;;;;8404684;28;20285;-76
2022/07/23 00:56:30;;;;;;;16.25;11.23;;;;;22.20;96299.00;;;;8405990;28;20227;-75
2022/07/23 01:00:35;;;;;;;13.05;10.85;;;;;22.10;96333.00;;;;8408709;28;20249;-77
2022/07/23 01:04:38;;;;;;;13.60;9.85;;;;;22.30;96341.00;;;;8405292;28;20227;-76
2022/07/23 01:08:43;;;;;;;10.98;9.57;;;;;22.50;96334.00;;;;8391544;28;20318;-77
2022/07/23 01:12:46;;;;;;;12.65;9.55;;;;;22.70;96346.00;;;;8403821;28;20219;-75
2022/07/23 01:16:51;;;;;;;13.20;9.13;;;;;22.90;96328.00;;;;8409571;28;20688;-76
2022/07/23 01:20:54;;;;;;;12.05;9.02;;;;;23.10;96335.00;;;;8405382;28;20676;-76
2022/07/23 01:24:59;;;;;;;10.80;8.02;;;;;23.30;96327.00;;;;8411603;28;20937;-76
2022/07/23 01:29:02;;;;;;;15.15;8.48;;;;;23.40;96333.00;;;;8406540;28;20306;-76
2022/07/23 01:33:06;;;;;;;11.35;8.68;;;;;23.50;96335.00;;;;8408380;28;20219;-77
2022/07/23 01:37:09;;;;;;;13.68;8.82;;;;;23.50;96351.00;;;;8408083;28;20306;-76
2022/07/23 01:41:14;;;;;;;13.35;9.27;;;;;23.60;96344.00;;;;8410720;28;20307;-77
2022/07/23 01:45:17;;;;;;;12.65;9.60;;;;;23.60;96343.00;;;;8408898;28;20233;-76
2022/07/23 01:49:20;;;;;;;10.50;9.13;;;;;23.50;96349.00;;;;8408728;28;20616;-76
2022/07/23 01:53:24;;;;;;;16.55;8.02;;;;;23.50;96354.00;;;;8408292;28;20238;-76
2022/07/23 01:57:28;;;;;;;15.43;10.00;;;;;23.40;96359.00;;;;8414411;28;20247;-77
2022/07/23 02:01:32;;;;;;;15.07;9.95;;;;;23.20;96368.00;;;;8410279;28;20246;-75
2022/07/23 02:05:35;;;;;;;13.10;10.50;;;;;22.90;96369.00;;;;8411301;28;20215;-77
2022/07/23 02:09:38;;;;;;;16.30;9.93;;;;;22.80;96397.00;;;;8409581;28;20226;-76
2022/07/23 02:13:43;;;;;;;20.35;11.52;;;;;22.50;96414.00;;;;8409767;28;20223;-77
2022/07/23 02:17:46;;;;;;;13.68;10.32;;;;;22.40;96414.00;;;;8407918;28;20233;-76
2022/07/23 02:21:49;;;;;;;14.52;11.20;;;;;22.30;96424.00;;;;8413160;28;20241;-76
2022/07/23 02:25:52;;;;;;;14.95;10.75;;;;;22.30;96425.00;;;;8412227;28;20314;-76
2022/07/23 02:29:57;;;;;;;14.45;10.32;;;;;22.20;96430.00;;;;8408440;28;20227;-76
2022/07/23 02:34:01;;;;;;;15.55;10.93;;;;;21.90;96448.00;;;;8411139;28;20862;-75
2022/07/23 02:38:04;;;;;;;18.48;12.52;;;;;21.40;96491.00;;;;8411362;28;20215;-75
2022/07/23 02:42:07;;;;;;;20.83;12.05;;;;;20.90;96435.00;;;;8416458;28;20314;-73
2022/07/23 02:46:12;;;;;;;15.60;11.25;;;;;20.60;96406.00;;;;8410926;28;20229;-76
2022/07/23 02:50:16;;;;;;;16.65;11.25;;;;;20.40;96417.00;;;;8409670;28;20219;-74
2022/07/23 02:54:19;;;;;;;28.00;11.48;;;;;20.10;96434.00;;;;8410192;28;20226;-75
2022/07/23 02:58:22;;;;;;;12.82;9.48;;;;;20.00;96398.00;;;;8412181;28;20246;-73
2022/07/23 03:02:27;;;;;;;14.85;10.38;;;;;19.90;96412.00;;;;8435112;22;20232;-72
2022/07/23 03:06:34;;;;;;;16.27;9.20;;;;;19.90;96437.00;;;;8331879;28;20231;-80
2022/07/23 03:10:37;;;;;;;12.85;9.50;;;;;19.90;96443.00;;;;8336330;28;20636;-77
2022/07/23 03:14:40;;;;;;;15.40;10.05;;;;;19.80;96424.00;;;;8345424;28;20227;-77
2022/07/23 03:18:45;;;;;;;14.77;10.48;;;;;19.90;96426.00;;;;8353086;28;20225;-75
2022/07/23 03:22:49;;;;;;;14.75;9.23;;;;;19.90;96425.00;;;;8345236;28;20267;-74
2022/07/23 03:26:52;;;;;;;15.43;9.38;;;;;19.90;96418.00;;;;8354842;28;20237;-76
2022/07/23 03:30:55;;;;;;;10.50;8.23;;;;;19.90;96405.00;;;;8344919;28;20271;-74
2022/07/23 03:35:00;;;;;;;14.68;8.32;;;;;19.90;96403.00;;;;8341019;28;20230;-73
2022/07/23 03:39:04;;;;;;;9.70;7.53;;;;;19.90;96414.00;;;;8349266;28;20220;-72
2022/07/23 03:43:07;;;;;;;12.15;8.32;;;;;19.90;96385.00;;;;8343522;28;20573;-74
2022/07/23 03:47:11;;;;;;;9.88;8.00;;;;;19.90;96389.00;;;;8346907;28;20319;-71
2022/07/23 03:51:15;;;;;;;16.70;8.07;;;;;19.90;96394.00;;;;8343764;28;20783;-73
2022/07/23 03:55:18;;;;;;;9.85;7.53;;;;;19.80;96380.00;;;;8343589;28;20805;-74
2022/07/23 03:59:22;;;;;;;8.77;6.45;;;;;19.90;96365.00;;;;8344866;28;20682;-74
2022/07/23 04:03:26;;;;;;;9.65;7.75;;;;;19.90;96376.00;;;;8359479;28;20311;-75
2022/07/23 04:07:30;;;;;;;11.23;7.07;;;;;19.90;96367.00;;;;8374656;28;20228;-75
2022/07/23 04:11:34;;;;;;;9.20;6.60;;;;;19.80;96360.00;;;;8377022;28;20229;-76
2022/07/23 04:15:37;;;;;;;10.85;5.95;;;;;19.80;96368.00;;;;8373808;28;20232;-75
2022/07/23 04:19:43;;;;;;;6.93;5.93;;;;;19.90;96362.00;;;;8373993;28;20239;-77
2022/07/23 04:23:49;;;;;;;7.30;5.80;;;;;20.00;96359.00;;;;8375217;28;20331;-76
2022/07/23 04:27:52;;;;;;;7.40;6.38;;;;;20.00;96371.00;;;;8376740;28;20240;-76
2022/07/23 04:31:55;;;;;;;7.28;5.90;;;;;20.10;96371.00;;;;8364288;28;20590;-78
2022/07/23 04:35:59;;;;;;;8.82;7.05;;;;;20.10;96372.00;;;;8361049;28;20585;-77
2022/07/23 04:40:21;;;;;;;6.95;6.13;;;;;20.20;96365.00;;;;8370588;28;20243;-80
2022/07/23 04:44:29;;;;;;;7.95;5.68;;;;;20.20;96369.00;;;;8357401;28;20299;-76
2022/07/23 04:48:32;;;;;;;6.25;5.65;;;;;20.30;96359.00;;;;8376822;28;20313;-76
2022/07/23 04:52:35;;;;;;;8.93;5.28;;;;;20.40;96364.00;;;;8367523;28;20236;-77
2022/07/23 04:56:40;;;;;;;5.20;4.47;;;;;20.50;96359.00;;;;8369945;28;20585;-77
2022/07/23 05:00:43;;;;;;;5.05;4.55;;;;;20.50;96353.00;;;;8373480;28;20243;-80
2022/07/23 05:04:46;;;;;;;7.70;5.00;;;;;20.70;96339.00;;;;8372359;28;20323;-77
2022/07/23 05:08:50;;;;;;;4.85;4.45;;;;;20.80;96354.00;;;;8370721;28;20230;-77
2022/07/23 05:12:54;;;;;;;8.65;4.80;;;;;21.00;96364.00;;;;8377363;28;20236;-76
2022/07/23 05:16:58;;;;;;;5.15;4.30;;;;;21.20;96381.00;;;;8372700;28;20259;-76
2022/07/23 05:21:01;;;;;;;7.00;4.35;;;;;21.30;96382.00;;;;8375888;28;20227;-78
2022/07/23 05:25:05;;;;;;;8.07;4.45;;;;;21.60;96380.00;;;;8375903;28;20222;-77
2022/07/23 05:29:10;;;;;;;5.05;4.55;;;;;21.80;96378.00;;;;8373124;28;20220;-77
2022/07/23 05:33:13;;;;;;;8.80;3.65;;;;;22.00;96375.00;;;;8371135;28;20223;-77
2022/07/23 05:37:17;;;;;;;8.43;4.50;;;;;22.20;96381.00;;;;8367760;28;20735;-76
2022/07/23 05:41:20;;;;;;;9.00;4.30;;;;;22.40;96379.00;;;;8380852;28;20310;-77
2022/07/23 05:45:25;;;;;;;5.28;3.75;;;;;22.60;96384.00;;;;8361859;28;20230;-76
2022/07/23 05:49:28;;;;;;;4.95;3.53;;;;;22.70;96379.00;;;;8378166;28;20232;-77
2022/07/23 05:53:32;;;;;;;6.00;3.85;;;;;22.90;96389.00;;;;8371768;28;20228;-75
2022/07/23 05:57:36;;;;;;;5.70;3.60;;;;;23.30;96395.00;;;;8383388;28;20254;-77
2022/07/23 06:01:41;;;;;;;6.72;3.58;;;;;23.60;96395.00;;;;8383567;28;20868;-76
2022/07/23 06:05:45;;;;;;;8.23;3.85;;;;;23.90;96389.00;;;;8354506;28;20324;-74
2022/07/23 06:09:48;;;;;;;6.70;3.67;;;;;24.00;96403.00;;;;8350095;28;20832;-75
2022/07/23 06:13:52;;;;;;;4.50;2.95;;;;;24.10;96402.00;;;;8348144;28;20701;-72
2022/07/23 06:17:57;;;;;;;3.28;3.08;;;;;24.30;96413.00;;;;8347917;28;20239;-76
2022/07/23 06:22:00;;;;;;;4.43;3.50;;;;;24.50;96419.00;;;;8332140;28;20240;-70
2022/07/23 06:26:03;;;;;;;3.58;3.25;;;;;24.90;96421.00;;;;8347299;28;20233;-70
2022/07/23 06:30:08;;;;;;;3.38;3.13;;;;;24.90;96431.00;;;;8358874;28;20315;-73
2022/07/23 06:34:13;;;;;;;5.75;3.35;;;;;25.20;96440.00;;;;8350427;28;20849;-72
2022/07/23 06:38:16;;;;;;;4.35;3.92;;;;;25.40;96435.00;;;;8352390;28;20316;-74
2022/07/23 06:42:21;;;;;;;3.65;3.35;;;;;25.80;96428.00;;;;8352655;28;20267;-78
2022/07/23 06:46:25;;;;;;;4.22;3.63;;;;;26.50;96438.00;;;;8343132;28;20232;-73
2022/07/23 06:50:30;;;;;;;4.15;3.80;;;;;26.90;96428.00;;;;8347687;28;20327;-71
2022/07/23 06:54:33;;;;;;;4.55;4.15;;;;;27.00;96438.00;;;;8348715;28;20836;-71
2022/07/23 06:58:36;;;;;;;3.50;3.30;;;;;26.80;96444.00;;;;8348500;28;20233;-73
2022/07/23 07:02:39;;;;;;;5.22;3.65;;;;;26.60;96447.00;;;;8339164;28;20237;-72
2022/07/23 07:06:44;;;;;;;4.10;3.80;;;;;26.80;96450.00;;;;8334652;28;20220;-74
2022/07/23 07:10:47;;;;;;;5.43;3.72;;;;;27.40;96452.00;;;;8335983;28;20217;-72
2022/07/23 07:14:50;;;;;;;3.83;3.53;;;;;27.40;96455.00;;;;8339496;28;20227;-74
2022/07/23 07:18:53;;;;;;;4.32;3.90;;;;;27.50;96463.00;;;;8340588;28;20232;-73
2022/07/23 07:22:58;;;;;;;4.13;3.72;;;;;27.80;96467.00;;;;8337918;28;20303;-76
2022/07/23 07:27:01;;;;;;;3.80;3.50;;;;;28.40;96472.00;;;;8345865;28;20230;-76
2022/07/23 07:31:05;;;;;;;4.10;3.80;;;;;28.90;96478.00;;;;8334348;28;20216;-74
2022/07/23 07:35:09;;;;;;;7.63;3.50;;;;;29.20;96474.00;;;;8328717;28;20229;-74
2022/07/23 07:39:14;;;;;;;3.65;3.28;;;;;29.60;96491.00;;;;8340200;28;20228;-74
2022/07/23 07:43:17;;;;;;;3.58;3.38;;;;;30.20;96479.00;;;;8324713;28;20318;-71
2022/07/23 07:47:21;;;;;;;3.47;3.17;;;;;30.80;96485.00;;;;8335533;28;20244;-73
2022/07/23 07:51:24;;;;;;;5.97;3.65;;;;;30.80;96498.00;;;;8334056;28;20314;-74
2022/07/23 07:55:29;;;;;;;3.67;3.20;;;;;30.80;96503.00;;;;8327338;28;20584;-73
2022/07/23 07:59:32;;;;;;;3.90;3.60;;;;;31.30;96497.00;;;;8334168;28;20231;-72
2022/07/23 08:03:35;;;;;;;3.85;3.55;;;;;31.50;96501.00;;;;8344870;28;20269;-75
2022/07/23 08:07:40;;;;;;;3.78;3.47;;;;;31.70;96514.00;;;;8366108;28;20236;-74
2022/07/23 08:11:45;;;;;;;3.75;3.45;;;;;31.80;96511.00;;;;8368764;28;20879;-73
2022/07/23 08:15:48;;;;;;;4.20;3.08;;;;;32.50;96512.00;;;;8361625;28;20256;-74
2022/07/23 08:19:51;;;;;;;6.78;3.78;;;;;32.40;96512.00;;;;8366030;28;20230;-73
2022/07/23 08:23:54;;;;;;;3.53;3.22;;;;;32.60;96505.00;;;;8366610;28;20224;-73
2022/07/23 08:28:00;;;;;;;4.65;3.50;;;;;32.10;96512.00;;;;8366030;28;20228;-74
2022/07/23 08:32:05;;;;;;;5.25;3.60;;;;;31.40;96520.00;;;;8373147;28;20215;-75
2022/07/23 08:36:31;;;;;;;4.00;3.63;;;;;31.10;96525.00;;;;8366363;28;20597;-76
2022/07/23 08:40:38;;;;;;;4.75;3.80;;;;;31.20;96527.00;;;;8368369;28;20234;-74
2022/07/23 08:44:47;;;;;;;3.92;3.70;;;;;30.80;96527.00;;;;8364863;28;20300;-74
2022/07/23 08:48:51;;;;;;;3.88;3.58;;;;;30.90;96534.00;;;;8366432;28;20495;-72
2022/07/23 08:52:56;;;;;;;4.10;3.70;;;;;31.10;96519.00;;;;8364271;28;20657;-73
2022/07/23 08:56:59;;;;;;;4.25;3.85;;;;;31.00;96517.00;;;;8365752;28;20233;-76
2022/07/23 09:01:04;;;;;;;3.90;3.60;;;;;31.10;96518.00;;;;8358295;28;20573;-75
2022/07/23 09:05:10;;;;;;;4.55;3.60;;;;;31.10;96519.00;;;;8338600;28;20759;-75
2022/07/23 09:09:20;;;;;;;3.90;3.60;;;;;31.50;96521.00;;;;8330287;28;20359;-73
2022/07/23 09:13:33;;;;;;;4.32;4.03;;;;;32.30;96519.00;;;;8329937;28;20332;-75
2022/07/23 09:17:40;;;;;;;4.05;3.70;;;;;32.70;96513.00;;;;8327662;28;20236;-73
2022/07/23 09:21:43;;;;;;;4.45;3.92;;;;;33.10;96504.00;;;;8330850;28;20721;-73
2022/07/23 09:25:47;;;;;;;3.88;3.67;;;;;33.20;96511.00;;;;8329006;28;20232;-73
2022/07/23 09:29:57;;;;;;;3.70;3.40;;;;;33.20;96498.00;;;;8334696;28;20296;-72
2022/07/23 09:34:13;;;;;;;5.80;3.65;;;;;34.10;96499.00;;;;8334975;28;20220;-75
2022/07/23 09:38:18;;;;;;;4.93;4.03;;;;;34.60;96499.00;;;;8340076;28;20236;-73
2022/07/23 09:42:23;;;;;;;6.70;3.92;;;;;35.10;96505.00;;;;8327933;28;21722;-73
2022/07/23 09:46:29;;;;;;;4.78;4.38;;;;;35.60;96512.00;;;;8339494;28;20689;-76
2022/07/23 09:50:33;;;;;;;4.75;4.32;;;;;35.80;96513.00;;;;8342950;28;20236;-74
2022/07/23 09:54:38;;;;;;;9.63;3.60;;;;;36.40;96518.00;;;;8338131;28;20221;-79
2022/07/23 09:58:46;;;;;;;4.45;4.05;;;;;36.40;96513.00;;;;8335488;28;21198;-78
2022/07/23 10:02:50;;;;;;;4.57;4.13;;;;;36.60;96510.00;;;;8347155;28;20232;-76
2022/07/23 10:06:57;;;;;;;3.65;3.35;;;;;37.20;96504.00;;;;8372213;28;20239;-79
2022/07/23 10:11:01;;;;;;;4.50;4.10;;;;;37.80;96507.00;;;;8371794;28;20257;-79
2022/07/23 10:15:07;;;;;;;4.82;4.35;;;;;38.70;96503.00;;;;8374059;28;20239;-77
2022/07/23 10:19:11;;;;;;;5.10;4.60;;;;;38.90;96504.00;;;;8365658;28;20696;-76
2022/07/23 10:23:21;;;;;;;13.13;7.55;;;;;37.50;96512.00;;;;8368931;28;20247;-80
2022/07/23 10:28:07;;;;;;;6.18;5.55;;;;;36.10;96497.00;;;;8369684;28;20677;-75
2022/07/23 10:32:27;;;;;;;7.57;6.28;;;;;35.50;96503.00;;;;8367597;28;20287;-85
2022/07/23 10:36:38;;;;;;;5.32;4.78;;;;;36.70;96516.00;;;;8371135;28;20306;-78
2022/07/23 10:40:55;;;;;;;5.47;4.95;;;;;36.00;96499.00;;;;8375845;28;20255;-74
2022/07/23 10:44:59;;;;;;;6.22;4.88;;;;;34.90;96499.00;;;;8369686;28;20227;-75
2022/07/23 10:49:28;;;;;;;6.68;5.03;;;;;33.80;96492.00;;;;8372574;28;20223;-75
2022/07/23 10:53:54;;;;;;;8.63;6.22;;;;;32.80;96496.00;;;;8371478;28;20659;-75
2022/07/23 10:57:59;;;;;;;6.90;6.20;;;;;32.00;96501.00;;;;8368616;28;20228;-76
2022/07/23 11:02:23;;;;;;;6.60;5.63;;;;;31.40;96501.00;;;;8362631;28;20316;-76
2022/07/23 11:07:08;;;;;;;8.55;5.93;;;;;31.00;96506.00;;;;8336893;28;20234;-76
2022/07/23 11:11:12;;;;;;;7.20;5.57;;;;;31.10;96510.00;;;;8343599;28;20225;-70
2022/07/23 11:15:17;;;;;;;9.20;5.72;;;;;31.10;96525.00;;;;8346057;28;20313;-70
2022/07/23 11:19:20;;;;;;;6.20;5.60;;;;;31.20;96517.00;;;;8348358;28;20235;-67
2022/07/23 11:23:24;;;;;;;8.32;5.65;;;;;31.40;96509.00;;;;8344864;28;20288;-68
2022/07/23 11:27:38;;;;;;;6.03;5.40;;;;;33.00;96497.00;;;;8346029;28;20308;-73
2022/07/23 11:31:53;;;;;;;6.72;5.25;;;;;34.30;96499.00;;;;8348028;28;20231;-74
2022/07/23 11:36:04;;;;;;;5.68;5.18;;;;;35.10;96495.00;;;;8345203;28;20291;-70
2022/07/23 11:40:11;;;;;;;8.35;5.40;;;;;36.60;96479.00;;;;8342486;28;20255;-68
2022/07/23 11:44:26;;;;;;;6.07;5.28;;;;;37.10;96484.00;;;;8346189;28;20589;-69
2022/07/23 11:48:32;;;;;;;6.75;5.22;;;;;37.40;96494.00;;;;8343348;28;20244;-69
2022/07/23 11:52:43;;;;;;;6.68;5.30;;;;;36.20;96500.00;;;;8343963;28;20232;-69
2022/07/23 11:56:56;;;;;;;6.35;4.82;;;;;35.90;96498.00;;;;8345312;28;20324;-71
2022/07/23 12:00:59;;;;;;;5.68;5.10;;;;;35.20;96498.00;;;;8335704;28;20221;-67
2022/07/23 12:05:06;;;;;;;5.95;4.63;;;;;34.90;96493.00;;;;8341864;28;20613;-70
2022/07/23 12:09:11;;;;;;;4.93;4.53;;;;;34.70;96504.00;;;;8340040;28;20216;-70
2022/07/23 12:13:17;;;;;;;7.10;4.35;;;;;33.70;96503.00;;;;8343572;28;20221;-72
2022/07/23 12:17:22;;;;;;;5.53;5.03;;;;;33.40;96497.00;;;;8340428;28;20298;-71
2022/07/23 12:21:27;;;;;;;4.78;4.28;;;;;33.00;96494.00;;;;8345886;28;20790;-76
2022/07/23 12:25:31;;;;;;;5.40;4.90;;;;;32.70;96484.00;;;;8344530;28;20216;-69
2022/07/23 12:29:36;;;;;;;5.53;4.68;;;;;33.00;96479.00;;;;8347325;28;20232;-71
2022/07/23 12:33:42;;;;;;;4.43;4.10;;;;;33.60;96476.00;;;;8342598;28;20239;-72
2022/07/23 12:37:48;;;;;;;5.30;4.80;;;;;34.20;96480.00;;;;8345787;28;20220;-70
2022/07/23 12:41:56;;;;;;;5.13;4.63;;;;;34.40;96475.00;;;;8326087;28;20228;-71
2022/07/23 12:46:04;;;;;;;5.25;4.72;;;;;34.50;96471.00;;;;8332679;28;20686;-68
2022/07/23 12:50:07;;;;;;;5.05;4.50;;;;;33.80;96477.00;;;;8337430;28;20228;-67
2022/07/23 12:54:12;;;;;;;5.05;4.57;;;;;33.20;96472.00;;;;8345745;28;20222;-67
2022/07/23 12:58:18;;;;;;;5.28;4.78;;;;;32.90;96474.00;;;;8311926;28;20262;-67
2022/07/23 13:02:22;;;;;;;4.90;4.45;;;;;33.00;96473.00;;;;8335860;28;20228;-69
2022/07/23 13:06:26;;;;;;;5.05;4.53;;;;;33.50;96478.00;;;;8327288;28;20232;-69
2022/07/23 13:10:31;;;;;;;5.85;5.05;;;;;34.00;96480.00;;;;8328412;28;20224;-66
2022/07/23 13:14:34;;;;;;;5.32;4.82;;;;;34.50;96494.00;;;;8327038;28;20610;-70
2022/07/23 13:18:37;;;;;;;7.82;5.03;;;;;34.80;96486.00;;;;8328605;28;20216;-66
2022/07/23 13:22:41;;;;;;;4.95;4.45;;;;;34.90;96496.00;;;;8335975;28;20318;-68
2022/07/23 13:26:49;;;;;;;5.30;4.68;;;;;35.10;96495.00;;;;8336419;28;20702;-71
2022/07/23 13:30:53;;;;;;;10.07;4.93;;;;;35.50;96488.00;;;;8343397;28;20242;-65
2022/07/23 13:34:57;;;;;;;5.07;4.63;;;;;35.90;96489.00;;;;8340124;28;20224;-68
2022/07/23 13:39:00;;;;;;;5.57;4.88;;;;;35.40;96492.00;;;;8332747;28;20221;-66
2022/07/23 13:43:05;;;;;;;5.15;4.65;;;;;34.60;96490.00;;;;8339884;28;20317;-71
2022/07/23 13:47:10;;;;;;;5.70;4.93;;;;;33.90;96504.00;;;;8334224;28;20220;-68
2022/07/23 13:51:13;;;;;;;6.60;4.78;;;;;33.40;96504.00;;;;8335843;28;20246;-69
2022/07/23 13:55:16;;;;;;;4.80;4.45;;;;;33.00;96505.00;;;;8335646;28;20323;-67
2022/07/23 13:59:21;;;;;;;6.30;4.68;;;;;33.10;96496.00;;;;8333496;28;20275;-68
2022/07/23 14:03:30;;;;;;;5.45;5.05;;;;;34.60;96490.00;;;;8339037;28;20256;-68
2022/07/23 14:07:34;;;;;;;7.63;5.05;;;;;35.10;96496.00;;;;8379975;28;20250;-67
2022/07/23 14:11:38;;;;;;;6.13;4.50;;;;;35.60;96491.00;;;;8377310;28;20224;-68
2022/07/23 14:15:43;;;;;;;4.72;4.32;;;;;36.30;96490.00;;;;8377293;28;20776;-67
2022/07/23 14:19:46;;;;;;;4.72;4.32;;;;;37.20;96492.00;;;;8364737;28;20738;-70
2022/07/23 14:23:50;;;;;;;4.65;4.25;;;;;37.40;96497.00;;;;8366220;28;20299;-68
2022/07/23 14:27:54;;;;;;;4.93;4.53;;;;;36.60;96505.00;;;;8368367;28;20228;-67
2022/07/23 14:31:58;;;;;;;11.02;4.68;;;;;36.00;96493.00;;;;8369198;28;20228;-65
2022/07/23 14:36:02;;;;;;;4.47;4.05;;;;;35.40;96506.00;;;;8373296;28;20266;-69
2022/07/23 14:40:07;;;;;;;9.60;4.28;;;;;35.00;96507.00;;;;8364478;28;20216;-68
2022/07/23 14:44:11;;;;;;;4.50;4.10;;;;;34.80;96494.00;;;;8366291;28;20247;-69
2022/07/23 14:48:15;;;;;;;5.00;4.50;;;;;34.80;96492.00;;;;8367394;28;20792;-68
2022/07/23 14:52:20;;;;;;;4.78;4.38;;;;;34.20;96497.00;;;;8363419;28;20219;-69
2022/07/23 14:56:23;;;;;;;4.63;4.22;;;;;34.00;96486.00;;;;8369678;28;20589;-68
2022/07/23 15:00:27;;;;;;;4.82;4.43;;;;;34.50;96479.00;;;;8370962;28;20233;-68
2022/07/23 15:04:31;;;;;;;4.63;4.22;;;;;35.10;96473.00;;;;8342155;28;20225;-72
2022/07/23 15:08:40;;;;;;;5.25;4.03;;;;;35.70;96483.00;;;;8336711;28;20225;-71
2022/07/23 15:12:44;;;;;;;5.00;4.30;;;;;35.50;96477.00;;;;8331503;28;20240;-72
2022/07/23 15:16:49;;;;;;;6.22;3.80;;;;;35.50;96475.00;;;;8331636;28;20733;-71
2022/07/23 15:20:58;;;;;;;4.43;4.07;;;;;35.40;96484.00;;;;8330936;28;20301;-72
2022/07/23 15:25:02;;;;;;;4.53;4.22;;;;;35.40;96488.00;;;;8333721;28;20307;-71
2022/07/23 15:29:05;;;;;;;4.60;4.20;;;;;34.90;96491.00;;;;8331064;28;20225;-71
2022/07/23 15:33:09;;;;;;;4.90;4.47;;;;;34.60;96497.00;;;;8336173;28;20279;-71
2022/07/23 15:37:25;;;;;;;4.82;4.32;;;;;34.50;96500.00;;;;8331419;28;20224;-71
2022/07/23 15:41:28;;;;;;;7.25;4.45;;;;;34.40;96499.00;;;;8337253;28;20241;-72
2022/07/23 15:45:32;;;;;;;4.50;4.05;;;;;34.10;96489.00;;;;8331932;28;20227;-70
2022/07/23 15:49:35;;;;;;;4.65;4.25;;;;;33.70;96497.00;;;;8332429;28;20300;-71
2022/07/23 15:53:40;;;;;;;4.55;4.15;;;;;33.30;96493.00;;;;8334393;28;20255;-69
2022/07/23 15:57:45;;;;;;;4.93;4.50;;;;;33.00;96478.00;;;;8335124;28;20350;-69
2022/07/23 16:01:48;;;;;;;4.45;3.95;;;;;32.60;96473.00;;;;8331289;28;20654;-71
2022/07/23 16:05:52;;;;;;;4.75;4.25;;;;;32.40;96476.00;;;;8362035;28;20231;-71
2022/07/23 16:09:56;;;;;;;4.97;4.10;;;;;32.30;96480.00;;;;8363479;28;20315;-71
2022/07/23 16:14:00;;;;;;;4.35;3.95;;;;;32.30;96479.00;;;;8363364;28;20228;-70
2022/07/23 16:18:03;;;;;;;4.03;3.72;;;;;32.30;96486.00;;;;8364435;28;20316;-71
2022/07/23 16:22:07;;;;;;;6.20;4.50;;;;;32.20;96487.00;;;;8359999;28;20221;-71
2022/07/23 16:26:12;;;;;;;4.70;4.30;;;;;32.10;96495.00;;;;8365443;28;20255;-71
2022/07/23 16:30:15;;;;;;;4.68;4.28;;;;;32.80;96490.00;;;;8360769;28;20698;-71
2022/07/23 16:34:19;;;;;;;4.63;4.22;;;;;33.60;96492.00;;;;8364825;28;20231;-70
2022/07/23 16:38:22;;;;;;;4.13;3.83;;;;;34.30;96493.00;;;;8361436;28;20248;-73
2022/07/23 16:42:28;;;;;;;5.10;4.20;;;;;34.70;96497.00;;;;8364859;28;20860;-68
2022/07/23 16:46:31;;;;;;;4.15;3.85;;;;;34.60;96490.00;;;;8367825;28;20637;-68
2022/07/23 16:50:34;;;;;;;5.28;3.80;;;;;34.40;96497.00;;;;8365316;28;20256;-69
2022/07/23 16:54:37;;;;;;;4.60;4.20;;;;;33.60;96500.00;;;;8367641;28;20220;-69
2022/07/23 16:58:42;;;;;;;4.95;4.47;;;;;33.30;96498.00;;;;8363393;28;20225;-70
2022/07/23 17:02:46;;;;;;;4.55;4.15;;;;;32.80;96498.00;;;;8365112;28;20621;-69
2022/07/23 17:06:49;;;;;;;5.00;4.57;;;;;32.50;96503.00;;;;8337604;28;20227;-68
2022/07/23 17:10:53;;;;;;;5.55;4.57;;;;;32.20;96514.00;;;;8343369;28;20242;-68
2022/07/23 17:14:58;;;;;;;5.10;4.60;;;;;31.80;96508.00;;;;8350480;28;20230;-68
2022/07/23 17:19:08;;;;;;;4.82;4.40;;;;;31.90;96506.00;;;;8344521;28;20232;-68
2022/07/23 17:23:12;;;;;;;4.97;4.47;;;;;31.80;96506.00;;;;8343166;28;20229;-67
2022/07/23 17:27:16;;;;;;;5.78;4.88;;;;;31.50;96507.00;;;;8335975;28;20246;-68
2022/07/23 17:31:21;;;;;;;8.60;5.20;;;;;31.50;96507.00;;;;8331902;28;20775;-69
2022/07/23 17:35:25;;;;;;;8.52;5.30;;;;;31.60;96512.00;;;;8344274;28;20249;-66
2022/07/23 17:39:28;;;;;;;7.18;5.68;;;;;31.20;96517.00;;;;8344070;28;20570;-68
2022/07/23 17:43:31;;;;;;;8.18;5.90;;;;;30.90;96521.00;;;;8337347;28;20228;-68
2022/07/23 17:47:36;;;;;;;6.63;6.03;;;;;31.00;96526.00;;;;8334770;28;20232;-67
2022/07/23 17:51:39;;;;;;;7.28;6.22;;;;;30.70;96532.00;;;;8348428;28;20715;-67
2022/07/23 17:55:43;;;;;;;8.45;6.20;;;;;30.50;96529.00;;;;8323686;28;20614;-68
2022/07/23 17:59:46;;;;;;;10.55;6.28;;;;;30.30;96530.00;;;;8338673;28;20280;-68
2022/07/23 18:03:51;;;;;;;9.88;6.15;;;;;29.90;96534.00;;;;8345107;28;20238;-68
2022/07/23 18:07:54;;;;;;;6.93;6.03;;;;;29.60;96541.00;;;;8347653;28;20232;-69
2022/07/23 18:11:59;;;;;;;6.93;6.22;;;;;29.20;96539.00;;;;8349968;28;20228;-68
2022/07/23 18:16:02;;;;;;;7.15;6.32;;;;;28.90;96544.00;;;;8349496;28;20315;-68
2022/07/23 18:20:09;;;;;;;9.48;6.50;;;;;28.70;96550.00;;;;8348733;28;20259;-68
2022/07/23 18:24:12;;;;;;;8.63;6.70;;;;;28.50;96552.00;;;;8346830;28;20259;-69
2022/07/23 18:28:16;;;;;;;9.40;7.00;;;;;28.30;96548.00;;;;8348311;28;20228;-68
2022/07/23 18:32:19;;;;;;;8.98;7.05;;;;;28.10;96558.00;;;;8351074;28;20239;-68
2022/07/23 18:36:24;;;;;;;10.40;6.95;;;;;27.90;96558.00;;;;8349984;28;20233;-68
2022/07/23 18:40:27;;;;;;;7.13;6.30;;;;;27.80;96566.00;;;;8350424;28;20224;-68
2022/07/23 18:44:30;;;;;;;9.55;5.78;;;;;27.70;96563.00;;;;8347091;28;20256;-68
2022/07/23 18:48:34;;;;;;;8.95;7.07;;;;;27.50;96572.00;;;;8346811;28;20235;-68
2022/07/23 18:52:43;;;;;;;7.95;6.80;;;;;27.30;96576.00;;;;8342257;28;20300;-69
2022/07/23 18:56:47;;;;;;;7.30;6.57;;;;;26.90;96591.00;;;;8351174;28;20246;-69
2022/07/23 19:00:50;;;;;;;9.52;6.60;;;;;26.60;96592.00;;;;8344458;28;20311;-67
2022/07/23 19:04:53;;;;;;;8.15;6.72;;;;;26.20;96598.00;;;;8352821;28;20219;-68
2022/07/23 19:08:58;;;;;;;12.38;7.20;;;;;25.80;96602.00;;;;8367192;28;20221;-70
2022/07/23 19:13:08;;;;;;;10.35;7.00;;;;;25.50;96609.00;;;;8369543;28;20224;-70
2022/07/23 19:17:12;;;;;;;11.65;6.50;;;;;25.20;96621.00;;;;8368544;28;20224;-68
2022/07/23 19:21:15;;;;;;;10.45;7.35;;;;;24.90;96623.00;;;;8363879;28;20212;-69
2022/07/23 19:25:20;;;;;;;9.25;7.43;;;;;24.70;96628.00;;;;8367686;28;20232;-69
2022/07/23 19:29:23;;;;;;;9.43;7.28;;;;;24.50;96636.00;;;;8368683;28;20458;-68
2022/07/23 19:33:27;;;;;;;10.45;7.20;;;;;24.40;96647.00;;;;8365398;28;20263;-67
2022/07/23 19:37:30;;;;;;;9.50;7.13;;;;;24.20;96649.00;;;;8368013;28;20228;-67
2022/07/23 19:41:35;;;;;;;9.82;7.47;;;;;24.00;96649.00;;;;8367620;28;20831;-68
2022/07/23 19:45:38;;;;;;;10.48;7.97;;;;;23.80;96658.00;;;;8367843;28;20230;-68
2022/07/23 19:49:44;;;;;;;12.32;7.47;;;;;23.70;96663.00;;;;8366582;28;20282;-68
2022/07/23 19:53:48;;;;;;;9.57;7.68;;;;;23.50;96652.00;;;;8366832;28;20230;-69
2022/07/23 19:57:55;;;;;;;9.88;7.60;;;;;23.40;96652.00;;;;8361237;28;20254;-68
2022/07/23 20:01:58;;;;;;;10.07;8.15;;;;;23.30;96647.00;;;;8361459;28;20247;-68
2022/07/23 20:06:01;;;;;;;9.82;7.55;;;;;23.20;96651.00;;;;8334969;28;20825;-68
2022/07/23 20:10:06;;;;;;;12.32;8.95;;;;;23.10;96658.00;;;;8338631;28;20223;-68
2022/07/23 20:14:11;;;;;;;12.80;7.70;;;;;23.10;96662.00;;;;8339030;28;20233;-67
2022/07/23 20:18:15;;;;;;;11.15;7.32;;;;;23.00;96659.00;;;;8338850;28;20235;-69
2022/07/23 20:22:18;;;;;;;8.63;7.63;;;;;23.00;96654.00;;;;8333251;28;20254;-67